sensor_id;sensor_type;location;lat;lon;timestamp;temperature;humidity
1011;DHT22;494;48.744;10.106;2024-03-02T00:02:25;9.50;1.00
1011;DHT22;494;48.744;10.106;2024-03-02T00:04:54;9.40;1.00
1011;DHT22;494;48.744;10.106;2024-03-02T00:07:29;9.40;1.00
1011;DHT22;494;48.744;10.106;2024-03-02T00:10:08;9.40;1.00
1011;DHT22;494;48.744;10.106;2024-03-02T00:12:39;9.50;1.00
1011;DHT22;494;48.744;10.106;2024-03-02T00:15:41;9.50;1.00
1011;DHT22;494;48.744;10.106;2024-03-02T00:18:20;9.50;1.00
1011;DHT22;494;48.744;10.106;2024-03-02T00:21:08;9.60;1.00
1011;DHT22;494;48.744;10.106;2024-03-02T00:23:41;9.70;1.00
1011;DHT22;494;48.744;10.106;2024-03-02T00:26:13;9.70;1.00
1011;DHT22;494;48.744;10.106;2024-03-02T00:28:44;9.80;1.00
1011;DHT22;494;48.744;10.106;2024-03-02T00:31:14;9.70;1.00
1011;DHT22;494;48.744;10.106;2024-03-02T00:33:47;9.70;1.00
1011;DHT22;494;48.744;10.106;2024-03-02T00:36:24;9.60;1.00
1011;DHT22;494;48.744;10.106;2024-03-02T00:39:08;9.50;1.00
1011;DHT22;494;48.744;10.106;2024-03-02T00:41:41;9.40;1.00
1011;DHT22;494;48.744;10.106;2024-03-02T00:44:13;9.50;1.00
1011;DHT22;494;48.744;10.106;2024-03-02T00:46:44;9.40;1.00
1011;DHT22;494;48.744;10.106;2024-03-02T00:49:21;9.40;1.00
1011;DHT22;494;48.744;10.106;2024-03-02T00:51:52;9.40;1.00
1011;DHT22;494;48.744;10.106;2024-03-02T00:54:28;9.50;1.00
1011;DHT22;494;48.744;10.106;2024-03-02T00:56:58;9.40;1.00
1011;DHT22;494;48.744;10.106;2024-03-02T00:59:30;9.40;1.00
1011;DHT22;494;48.744;10.106;2024-03-02T01:01:59;9.40;1.00
1011;DHT22;494;48.744;10.106;2024-03-02T01:04:28;9.50;1.00
1011;DHT22;494;48.744;10.106;2024-03-02T01:06:58;9.50;1.00
1011;DHT22;494;48.744;10.106;2024-03-02T01:09:38;9.50;1.00
1011;DHT22;494;48.744;10.106;2024-03-02T01:12:08;9.50;1.00
1011;DHT22;494;48.744;10.106;2024-03-02T01:14:37;9.60;1.00
1011;DHT22;494;48.744;10.106;2024-03-02T01:17:06;9.60;1.00
1011;DHT22;494;48.744;10.106;2024-03-02T01:19:34;9.60;1.00
1011;DHT22;494;48.744;10.106;2024-03-02T01:22:05;9.60;1.00
1011;DHT22;494;48.744;10.106;2024-03-02T01:24:33;9.60;1.00
1011;DHT22;494;48.744;10.106;2024-03-02T01:27:04;9.60;1.00
1011;DHT22;494;48.744;10.106;2024-03-02T01:29:35;9.60;1.00
1011;DHT22;494;48.744;10.106;2024-03-02T01:32:04;9.60;1.00
1011;DHT22;494;48.744;10.106;2024-03-02T01:34:40;9.70;1.00
1011;DHT22;494;48.744;10.106;2024-03-02T01:37:38;9.70;1.00
1011;DHT22;494;48.744;10.106;2024-03-02T01:40:09;9.70;1.00
1011;DHT22;494;48.744;10.106;2024-03-02T01:42:40;9.70;1.00
1011;DHT22;494;48.744;10.106;2024-03-02T01:45:09;9.70;1.00
1011;DHT22;494;48.744;10.106;2024-03-02T01:47:38;9.70;1.00
1011;DHT22;494;48.744;10.106;2024-03-02T01:50:08;9.80;1.00
1011;DHT22;494;48.744;10.106;2024-03-02T01:52:38;9.90;1.00
1011;DHT22;494;48.744;10.106;2024-03-02T01:55:08;9.80;1.00
1011;DHT22;494;48.744;10.106;2024-03-02T01:57:37;9.90;1.00
1011;DHT22;494;48.744;10.106;2024-03-02T02:00:14;9.90;1.00
1011;DHT22;494;48.744;10.106;2024-03-02T02:02:44;9.90;1.00
1011;DHT22;494;48.744;10.106;2024-03-02T02:05:14;10.00;1.00
1011;DHT22;494;48.744;10.106;2024-03-02T02:07:44;9.90;1.00
1011;DHT22;494;48.744;10.106;2024-03-02T02:10:14;9.90;1.00
1011;DHT22;494;48.744;10.106;2024-03-02T02:12:50;9.90;1.00
1011;DHT22;494;48.744;10.106;2024-03-02T02:15:26;10.00;1.00
1011;DHT22;494;48.744;10.106;2024-03-02T02:17:57;9.90;1.00
1011;DHT22;494;48.744;10.106;2024-03-02T02:20:32;9.90;1.00
1011;DHT22;494;48.744;10.106;2024-03-02T02:23:07;9.90;1.00
1011;DHT22;494;48.744;10.106;2024-03-02T02:25:37;9.90;1.00
1011;DHT22;494;48.744;10.106;2024-03-02T02:28:10;9.70;1.00
1011;DHT22;494;48.744;10.106;2024-03-02T02:30:40;9.90;1.00
1011;DHT22;494;48.744;10.106;2024-03-02T02:33:11;10.00;1.00
1011;DHT22;494;48.744;10.106;2024-03-02T02:35:41;9.90;1.00
1011;DHT22;494;48.744;10.106;2024-03-02T02:38:13;9.90;1.00
1011;DHT22;494;48.744;10.106;2024-03-02T02:40:42;9.80;1.00
1011;DHT22;494;48.744;10.106;2024-03-02T02:43:11;9.80;1.00
1011;DHT22;494;48.744;10.106;2024-03-02T02:45:40;9.70;1.00
1011;DHT22;494;48.744;10.106;2024-03-02T02:48:09;9.80;1.00
1011;DHT22;494;48.744;10.106;2024-03-02T02:50:38;9.70;1.00
1011;DHT22;494;48.744;10.106;2024-03-02T02:53:07;9.80;1.00
1011;DHT22;494;48.744;10.106;2024-03-02T02:55:39;9.80;1.00
1011;DHT22;494;48.744;10.106;2024-03-02T02:58:11;9.80;1.00
1011;DHT22;494;48.744;10.106;2024-03-02T03:00:40;9.80;1.00
1011;DHT22;494;48.744;10.106;2024-03-02T03:03:09;9.80;1.00
1011;DHT22;494;48.744;10.106;2024-03-02T03:05:39;9.80;1.00
1011;DHT22;494;48.744;10.106;2024-03-02T03:08:11;9.70;1.00
1011;DHT22;494;48.744;10.106;2024-03-02T03:10:41;9.70;1.00
1011;DHT22;494;48.744;10.106;2024-03-02T03:13:10;9.60;1.00
1011;DHT22;494;48.744;10.106;2024-03-02T03:15:39;9.60;1.00
1011;DHT22;494;48.744;10.106;2024-03-02T03:18:14;9.70;1.00
1011;DHT22;494;48.744;10.106;2024-03-02T03:20:43;9.70;1.00
1011;DHT22;494;48.744;10.106;2024-03-02T03:23:12;9.60;1.00
1011;DHT22;494;48.744;10.106;2024-03-02T03:25:44;9.50;1.00
1011;DHT22;494;48.744;10.106;2024-03-02T03:28:14;9.50;1.00
1011;DHT22;494;48.744;10.106;2024-03-02T03:30:43;9.50;1.00
1011;DHT22;494;48.744;10.106;2024-03-02T03:33:12;9.50;1.00
1011;DHT22;494;48.744;10.106;2024-03-02T03:35:41;9.50;1.00
1011;DHT22;494;48.744;10.106;2024-03-02T03:38:10;9.50;1.00
1011;DHT22;494;48.744;10.106;2024-03-02T03:40:45;9.40;1.00
1011;DHT22;494;48.744;10.106;2024-03-02T03:43:14;9.50;1.00
1011;DHT22;494;48.744;10.106;2024-03-02T03:45:43;9.40;1.00
1011;DHT22;494;48.744;10.106;2024-03-02T03:48:13;9.40;1.00
1011;DHT22;494;48.744;10.106;2024-03-02T03:50:42;9.40;1.00
1011;DHT22;494;48.744;10.106;2024-03-02T03:53:11;9.40;1.00
1011;DHT22;494;48.744;10.106;2024-03-02T03:55:41;9.30;1.00
1011;DHT22;494;48.744;10.106;2024-03-02T03:58:12;9.30;1.00
1011;DHT22;494;48.744;10.106;2024-03-02T04:00:41;9.30;1.00
1011;DHT22;494;48.744;10.106;2024-03-02T04:03:10;9.30;1.00
1011;DHT22;494;48.744;10.106;2024-03-02T04:05:38;9.40;1.00
1011;DHT22;494;48.744;10.106;2024-03-02T04:08:08;9.40;1.00
1011;DHT22;494;48.744;10.106;2024-03-02T04:10:38;9.40;1.00
1011;DHT22;494;48.744;10.106;2024-03-02T04:13:10;9.50;1.00
1011;DHT22;494;48.744;10.106;2024-03-02T04:15:39;9.40;1.00
1011;DHT22;494;48.744;10.106;2024-03-02T04:18:09;9.30;1.00
1011;DHT22;494;48.744;10.106;2024-03-02T04:20:38;9.20;1.00
1011;DHT22;494;48.744;10.106;2024-03-02T04:23:07;9.20;1.00
1011;DHT22;494;48.744;10.106;2024-03-02T04:25:50;9.10;1.00
1011;DHT22;494;48.744;10.106;2024-03-02T04:28:31;9.10;1.00
1011;DHT22;494;48.744;10.106;2024-03-02T04:31:00;9.00;1.00
1011;DHT22;494;48.744;10.106;2024-03-02T04:33:29;9.00;1.00
1011;DHT22;494;48.744;10.106;2024-03-02T04:35:58;9.00;1.00
1011;DHT22;494;48.744;10.106;2024-03-02T04:38:27;9.00;1.00
1011;DHT22;494;48.744;10.106;2024-03-02T04:40:55;9.00;1.00
1011;DHT22;494;48.744;10.106;2024-03-02T04:43:24;8.90;1.00
1011;DHT22;494;48.744;10.106;2024-03-02T04:45:54;8.80;1.00
1011;DHT22;494;48.744;10.106;2024-03-02T04:48:23;8.80;1.00
1011;DHT22;494;48.744;10.106;2024-03-02T04:50:52;8.70;1.00
1011;DHT22;494;48.744;10.106;2024-03-02T04:53:20;8.70;1.00
1011;DHT22;494;48.744;10.106;2024-03-02T04:55:50;8.60;1.00
1011;DHT22;494;48.744;10.106;2024-03-02T04:58:47;8.70;1.00
1011;DHT22;494;48.744;10.106;2024-03-02T05:01:18;8.70;1.00
1011;DHT22;494;48.744;10.106;2024-03-02T05:03:47;8.80;1.00
1011;DHT22;494;48.744;10.106;2024-03-02T05:06:17;8.80;1.00
1011;DHT22;494;48.744;10.106;2024-03-02T05:08:45;8.80;1.00
1011;DHT22;494;48.744;10.106;2024-03-02T05:11:15;8.80;1.00
1011;DHT22;494;48.744;10.106;2024-03-02T05:14:01;8.80;1.00
1011;DHT22;494;48.744;10.106;2024-03-02T05:16:33;8.90;1.00
1011;DHT22;494;48.744;10.106;2024-03-02T05:19:02;8.90;1.00
1011;DHT22;494;48.744;10.106;2024-03-02T05:21:33;8.90;1.00
1011;DHT22;494;48.744;10.106;2024-03-02T05:24:03;9.00;1.00
1011;DHT22;494;48.744;10.106;2024-03-02T05:26:31;9.00;1.00
1011;DHT22;494;48.744;10.106;2024-03-02T05:29:01;9.00;1.00
1011;DHT22;494;48.744;10.106;2024-03-02T05:31:31;9.00;1.00
1011;DHT22;494;48.744;10.106;2024-03-02T05:34:01;9.00;1.00
1011;DHT22;494;48.744;10.106;2024-03-02T05:36:30;9.00;1.00
1011;DHT22;494;48.744;10.106;2024-03-02T05:38:59;8.90;1.00
1011;DHT22;494;48.744;10.106;2024-03-02T05:41:28;8.90;1.00
1011;DHT22;494;48.744;10.106;2024-03-02T05:43:57;8.90;1.00
1011;DHT22;494;48.744;10.106;2024-03-02T05:46:25;9.00;1.00
1011;DHT22;494;48.744;10.106;2024-03-02T05:48:56;9.00;1.00
1011;DHT22;494;48.744;10.106;2024-03-02T05:51:25;9.00;1.00
1011;DHT22;494;48.744;10.106;2024-03-02T05:53:54;9.00;1.00
1011;DHT22;494;48.744;10.106;2024-03-02T05:56:23;9.00;1.00
1011;DHT22;494;48.744;10.106;2024-03-02T05:58:52;9.00;1.00
1011;DHT22;494;48.744;10.106;2024-03-02T06:01:35;9.00;1.00
1011;DHT22;494;48.744;10.106;2024-03-02T06:04:06;9.00;1.00
1011;DHT22;494;48.744;10.106;2024-03-02T06:06:35;9.00;1.00
1011;DHT22;494;48.744;10.106;2024-03-02T06:09:04;9.00;1.00
1011;DHT22;494;48.744;10.106;2024-03-02T06:11:35;9.00;1.00
1011;DHT22;494;48.744;10.106;2024-03-02T06:14:05;9.00;1.00
1011;DHT22;494;48.744;10.106;2024-03-02T06:16:34;9.10;1.00
1011;DHT22;494;48.744;10.106;2024-03-02T06:19:05;9.10;1.00
1011;DHT22;494;48.744;10.106;2024-03-02T06:21:34;9.20;1.00
1011;DHT22;494;48.744;10.106;2024-03-02T06:24:04;9.20;1.00
1011;DHT22;494;48.744;10.106;2024-03-02T06:26:39;9.10;1.00
1011;DHT22;494;48.744;10.106;2024-03-02T06:29:08;9.20;1.00
1011;DHT22;494;48.744;10.106;2024-03-02T06:31:39;9.20;1.00
1011;DHT22;494;48.744;10.106;2024-03-02T06:34:09;9.20;1.00
1011;DHT22;494;48.744;10.106;2024-03-02T06:36:40;9.20;1.00
1011;DHT22;494;48.744;10.106;2024-03-02T06:39:10;9.30;1.00
1011;DHT22;494;48.744;10.106;2024-03-02T06:41:39;9.30;1.00
1011;DHT22;494;48.744;10.106;2024-03-02T06:44:09;9.40;1.00
1011;DHT22;494;48.744;10.106;2024-03-02T06:46:38;9.40;1.00
1011;DHT22;494;48.744;10.106;2024-03-02T06:49:08;9.50;1.00
1011;DHT22;494;48.744;10.106;2024-03-02T06:51:38;9.40;1.00
1011;DHT22;494;48.744;10.106;2024-03-02T06:54:07;9.30;1.00
1011;DHT22;494;48.744;10.106;2024-03-02T06:56:36;9.30;1.00
1011;DHT22;494;48.744;10.106;2024-03-02T06:59:06;9.40;1.00
1011;DHT22;494;48.744;10.106;2024-03-02T07:01:34;9.40;1.00
1011;DHT22;494;48.744;10.106;2024-03-02T07:04:03;9.50;1.00
1011;DHT22;494;48.744;10.106;2024-03-02T07:06:35;9.60;1.00
1011;DHT22;494;48.744;10.106;2024-03-02T07:09:04;9.70;1.00
1011;DHT22;494;48.744;10.106;2024-03-02T07:11:34;9.80;1.00
1011;DHT22;494;48.744;10.106;2024-03-02T07:14:03;9.90;1.00
1011;DHT22;494;48.744;10.106;2024-03-02T07:16:36;9.90;1.00
1011;DHT22;494;48.744;10.106;2024-03-02T07:19:08;9.90;1.00
1011;DHT22;494;48.744;10.106;2024-03-02T07:21:38;9.90;1.00
1011;DHT22;494;48.744;10.106;2024-03-02T07:24:07;9.90;1.00
1011;DHT22;494;48.744;10.106;2024-03-02T07:26:40;10.00;1.00
1011;DHT22;494;48.744;10.106;2024-03-02T07:29:13;9.90;1.00
1011;DHT22;494;48.744;10.106;2024-03-02T07:31:43;10.00;1.00
1011;DHT22;494;48.744;10.106;2024-03-02T07:34:12;10.10;1.00
1011;DHT22;494;48.744;10.106;2024-03-02T07:36:43;10.00;1.00
1011;DHT22;494;48.744;10.106;2024-03-02T07:39:14;10.00;1.00
1011;DHT22;494;48.744;10.106;2024-03-02T07:41:47;10.10;1.00
1011;DHT22;494;48.744;10.106;2024-03-02T07:44:17;10.10;1.00
1011;DHT22;494;48.744;10.106;2024-03-02T07:46:46;10.20;1.00
1011;DHT22;494;48.744;10.106;2024-03-02T07:49:17;10.30;1.00
1011;DHT22;494;48.744;10.106;2024-03-02T07:51:47;10.40;1.00
1011;DHT22;494;48.744;10.106;2024-03-02T07:54:16;10.60;1.00
1011;DHT22;494;48.744;10.106;2024-03-02T07:56:45;10.60;1.00
1011;DHT22;494;48.744;10.106;2024-03-02T07:59:14;10.60;1.00
1011;DHT22;494;48.744;10.106;2024-03-02T08:01:43;10.70;1.00
1011;DHT22;494;48.744;10.106;2024-03-02T08:04:13;10.80;1.00
1011;DHT22;494;48.744;10.106;2024-03-02T08:06:42;10.90;1.00
1011;DHT22;494;48.744;10.106;2024-03-02T08:09:12;11.10;1.00
1011;DHT22;494;48.744;10.106;2024-03-02T08:11:42;11.20;1.00
1011;DHT22;494;48.744;10.106;2024-03-02T08:14:11;11.20;1.00
1011;DHT22;494;48.744;10.106;2024-03-02T08:16:41;11.10;1.00
1011;DHT22;494;48.744;10.106;2024-03-02T08:19:11;11.10;1.00
1011;DHT22;494;48.744;10.106;2024-03-02T08:21:41;11.30;1.00
1011;DHT22;494;48.744;10.106;2024-03-02T08:24:18;11.20;1.00
1011;DHT22;494;48.744;10.106;2024-03-02T08:26:48;11.20;1.00
1011;DHT22;494;48.744;10.106;2024-03-02T08:29:18;11.20;1.00
1011;DHT22;494;48.744;10.106;2024-03-02T08:31:47;11.30;1.00
1011;DHT22;494;48.744;10.106;2024-03-02T08:34:16;11.20;1.00
1011;DHT22;494;48.744;10.106;2024-03-02T08:36:48;11.20;1.00
1011;DHT22;494;48.744;10.106;2024-03-02T08:39:18;11.20;1.00
1011;DHT22;494;48.744;10.106;2024-03-02T08:41:48;11.30;1.00
1011;DHT22;494;48.744;10.106;2024-03-02T08:44:17;11.40;1.00
1011;DHT22;494;48.744;10.106;2024-03-02T08:46:46;11.50;1.00
1011;DHT22;494;48.744;10.106;2024-03-02T08:49:17;11.50;1.00
1011;DHT22;494;48.744;10.106;2024-03-02T08:51:46;11.60;1.00
1011;DHT22;494;48.744;10.106;2024-03-02T08:58:17;11.70;1.00
1011;DHT22;494;48.744;10.106;2024-03-02T09:00:47;11.70;1.00
1011;DHT22;494;48.744;10.106;2024-03-02T09:03:16;11.80;1.00
1011;DHT22;494;48.744;10.106;2024-03-02T09:05:48;11.80;1.00
1011;DHT22;494;48.744;10.106;2024-03-02T09:08:16;11.80;1.00
1011;DHT22;494;48.744;10.106;2024-03-02T09:10:47;11.80;1.00
1011;DHT22;494;48.744;10.106;2024-03-02T09:13:16;11.80;1.00
1011;DHT22;494;48.744;10.106;2024-03-02T09:15:47;11.90;1.00
1011;DHT22;494;48.744;10.106;2024-03-02T09:18:28;11.80;1.00
1011;DHT22;494;48.744;10.106;2024-03-02T09:24:40;12.10;1.00
1011;DHT22;494;48.744;10.106;2024-03-02T09:27:10;12.30;1.00
1011;DHT22;494;48.744;10.106;2024-03-02T09:33:32;12.50;1.00
1011;DHT22;494;48.744;10.106;2024-03-02T09:36:04;12.60;1.00
1011;DHT22;494;48.744;10.106;2024-03-02T09:38:36;13.10;1.00
1011;DHT22;494;48.744;10.106;2024-03-02T09:41:05;13.90;1.00
1011;DHT22;494;48.744;10.106;2024-03-02T09:43:35;14.70;1.00
1011;DHT22;494;48.744;10.106;2024-03-02T09:46:05;15.40;1.00
1011;DHT22;494;48.744;10.106;2024-03-02T09:48:37;16.40;1.00
1011;DHT22;494;48.744;10.106;2024-03-02T09:51:10;17.20;1.00
1011;DHT22;494;48.744;10.106;2024-03-02T09:53:41;17.90;1.00
1011;DHT22;494;48.744;10.106;2024-03-02T09:56:12;18.40;1.00
1011;DHT22;494;48.744;10.106;2024-03-02T09:58:44;19.10;1.00
1011;DHT22;494;48.744;10.106;2024-03-02T10:01:15;19.60;1.00
1011;DHT22;494;48.744;10.106;2024-03-02T10:03:45;20.00;1.00
1011;DHT22;494;48.744;10.106;2024-03-02T10:06:21;20.60;1.00
1011;DHT22;494;48.744;10.106;2024-03-02T10:08:51;21.10;1.00
1011;DHT22;494;48.744;10.106;2024-03-02T10:11:27;21.30;1.00
1011;DHT22;494;48.744;10.106;2024-03-02T10:14:07;21.50;1.00
1011;DHT22;494;48.744;10.106;2024-03-02T10:16:39;21.00;1.00
1011;DHT22;494;48.744;10.106;2024-03-02T10:19:16;20.50;1.00
1011;DHT22;494;48.744;10.106;2024-03-02T10:21:49;19.90;1.00
1011;DHT22;494;48.744;10.106;2024-03-02T10:24:21;19.80;1.00
1011;DHT22;494;48.744;10.106;2024-03-02T10:26:51;20.00;1.00
1011;DHT22;494;48.744;10.106;2024-03-02T10:29:23;20.30;1.00
1011;DHT22;494;48.744;10.106;2024-03-02T10:31:55;20.80;1.00
1011;DHT22;494;48.744;10.106;2024-03-02T10:34:26;21.50;1.00
1011;DHT22;494;48.744;10.106;2024-03-02T10:36:57;21.90;1.00
1011;DHT22;494;48.744;10.106;2024-03-02T10:39:28;22.30;1.00
1011;DHT22;494;48.744;10.106;2024-03-02T10:42:14;22.40;1.00
1011;DHT22;494;48.744;10.106;2024-03-02T10:44:47;22.60;1.00
1011;DHT22;494;48.744;10.106;2024-03-02T10:47:20;22.80;1.00
1011;DHT22;494;48.744;10.106;2024-03-02T10:49:56;23.00;1.00
1011;DHT22;494;48.744;10.106;2024-03-02T10:52:27;23.20;1.00
1011;DHT22;494;48.744;10.106;2024-03-02T10:54:57;23.00;1.00
1011;DHT22;494;48.744;10.106;2024-03-02T10:57:33;23.00;1.00
1011;DHT22;494;48.744;10.106;2024-03-02T11:00:21;23.00;1.00
1011;DHT22;494;48.744;10.106;2024-03-02T11:03:01;23.00;1.00
1011;DHT22;494;48.744;10.106;2024-03-02T11:05:39;22.60;1.00
1011;DHT22;494;48.744;10.106;2024-03-02T11:08:13;22.60;1.00
1011;DHT22;494;48.744;10.106;2024-03-02T11:10:51;22.60;1.00
1011;DHT22;494;48.744;10.106;2024-03-02T11:13:30;21.90;1.00
1011;DHT22;494;48.744;10.106;2024-03-02T11:16:12;21.20;1.00
1011;DHT22;494;48.744;10.106;2024-03-02T11:18:56;20.50;1.00
1011;DHT22;494;48.744;10.106;2024-03-02T11:21:30;19.70;1.00
1011;DHT22;494;48.744;10.106;2024-03-02T11:24:01;19.30;1.00
1011;DHT22;494;48.744;10.106;2024-03-02T11:27:06;18.90;1.00
1011;DHT22;494;48.744;10.106;2024-03-02T11:29:45;18.70;1.00
1011;DHT22;494;48.744;10.106;2024-03-02T11:32:21;18.50;1.00
1011;DHT22;494;48.744;10.106;2024-03-02T11:34:52;18.50;1.00
1011;DHT22;494;48.744;10.106;2024-03-02T11:37:21;18.50;1.00
1011;DHT22;494;48.744;10.106;2024-03-02T11:39:51;18.90;1.00
1011;DHT22;494;48.744;10.106;2024-03-02T11:42:20;19.50;1.00
1011;DHT22;494;48.744;10.106;2024-03-02T11:44:50;20.60;1.00
1011;DHT22;494;48.744;10.106;2024-03-02T11:47:22;21.90;1.00
1011;DHT22;494;48.744;10.106;2024-03-02T11:49:51;23.00;1.00
1011;DHT22;494;48.744;10.106;2024-03-02T11:52:22;23.90;1.00
1011;DHT22;494;48.744;10.106;2024-03-02T11:54:56;24.80;1.00
1011;DHT22;494;48.744;10.106;2024-03-02T11:57:43;25.30;1.00
1011;DHT22;494;48.744;10.106;2024-03-02T12:00:17;25.70;1.00
1011;DHT22;494;48.744;10.106;2024-03-02T12:03:04;25.70;1.00
1011;DHT22;494;48.744;10.106;2024-03-02T12:05:42;26.10;1.00
1011;DHT22;494;48.744;10.106;2024-03-02T12:08:11;26.50;1.00
1011;DHT22;494;48.744;10.106;2024-03-02T12:10:42;26.70;1.00
1011;DHT22;494;48.744;10.106;2024-03-02T12:13:52;27.20;1.00
1011;DHT22;494;48.744;10.106;2024-03-02T12:16:31;27.50;1.00
1011;DHT22;494;48.744;10.106;2024-03-02T12:19:31;27.50;1.00
1011;DHT22;494;48.744;10.106;2024-03-02T12:22:08;27.60;1.00
1011;DHT22;494;48.744;10.106;2024-03-02T12:24:51;27.60;1.00
1011;DHT22;494;48.744;10.106;2024-03-02T12:27:20;27.40;1.00
1011;DHT22;494;48.744;10.106;2024-03-02T12:29:56;27.50;1.00
1011;DHT22;494;48.744;10.106;2024-03-02T12:32:25;27.70;1.00
1011;DHT22;494;48.744;10.106;2024-03-02T12:34:56;27.90;1.00
1011;DHT22;494;48.744;10.106;2024-03-02T12:37:24;28.30;1.00
1011;DHT22;494;48.744;10.106;2024-03-02T12:39:54;28.60;1.00
1011;DHT22;494;48.744;10.106;2024-03-02T12:42:24;28.50;1.00
1011;DHT22;494;48.744;10.106;2024-03-02T12:44:56;28.70;1.00
1011;DHT22;494;48.744;10.106;2024-03-02T12:47:25;28.60;1.00
1011;DHT22;494;48.744;10.106;2024-03-02T12:50:00;28.40;1.00
1011;DHT22;494;48.744;10.106;2024-03-02T12:52:41;28.30;1.00
1011;DHT22;494;48.744;10.106;2024-03-02T12:55:23;28.30;1.00
1011;DHT22;494;48.744;10.106;2024-03-02T12:57:56;28.50;1.00
1011;DHT22;494;48.744;10.106;2024-03-02T13:00:29;28.60;1.00
1011;DHT22;494;48.744;10.106;2024-03-02T13:03:14;28.60;1.00
1011;DHT22;494;48.744;10.106;2024-03-02T13:05:53;28.60;1.00
1011;DHT22;494;48.744;10.106;2024-03-02T13:11:09;28.90;1.00
1011;DHT22;494;48.744;10.106;2024-03-02T13:13:55;29.40;1.00
1011;DHT22;494;48.744;10.106;2024-03-02T13:16:54;29.80;1.00
1011;DHT22;494;48.744;10.106;2024-03-02T13:19:29;30.20;1.00
1011;DHT22;494;48.744;10.106;2024-03-02T13:22:04;30.60;1.00
1011;DHT22;494;48.744;10.106;2024-03-02T13:24:46;30.90;1.00
1011;DHT22;494;48.744;10.106;2024-03-02T13:28:01;30.70;1.00
1011;DHT22;494;48.744;10.106;2024-03-02T13:30:57;30.00;1.00
1011;DHT22;494;48.744;10.106;2024-03-02T13:33:37;29.60;1.00
1011;DHT22;494;48.744;10.106;2024-03-02T13:36:26;29.70;1.00
1011;DHT22;494;48.744;10.106;2024-03-02T13:39:21;29.80;1.00
1011;DHT22;494;48.744;10.106;2024-03-02T13:41:51;29.90;1.00
1011;DHT22;494;48.744;10.106;2024-03-02T13:44:35;29.70;1.00
1011;DHT22;494;48.744;10.106;2024-03-02T13:47:06;29.00;1.00
1011;DHT22;494;48.744;10.106;2024-03-02T13:49:39;28.90;1.00
1011;DHT22;494;48.744;10.106;2024-03-02T13:52:15;28.30;1.00
1011;DHT22;494;48.744;10.106;2024-03-02T13:54:49;28.00;1.00
1011;DHT22;494;48.744;10.106;2024-03-02T13:57:21;28.00;1.00
1011;DHT22;494;48.744;10.106;2024-03-02T13:59:53;28.30;1.00
1011;DHT22;494;48.744;10.106;2024-03-02T14:02:26;28.20;1.00
1011;DHT22;494;48.744;10.106;2024-03-02T14:04:56;28.00;1.00
1011;DHT22;494;48.744;10.106;2024-03-02T14:07:27;27.80;1.00
1011;DHT22;494;48.744;10.106;2024-03-02T14:09:57;27.40;1.00
1011;DHT22;494;48.744;10.106;2024-03-02T14:12:26;26.80;1.00
1011;DHT22;494;48.744;10.106;2024-03-02T14:14:55;26.70;1.00
1011;DHT22;494;48.744;10.106;2024-03-02T14:17:26;26.90;1.00
1011;DHT22;494;48.744;10.106;2024-03-02T14:19:55;26.90;1.00
1011;DHT22;494;48.744;10.106;2024-03-02T14:22:26;27.20;1.00
1011;DHT22;494;48.744;10.106;2024-03-02T14:25:03;27.50;1.00
1011;DHT22;494;48.744;10.106;2024-03-02T14:27:40;27.60;1.00
1011;DHT22;494;48.744;10.106;2024-03-02T14:30:31;27.50;1.00
1011;DHT22;494;48.744;10.106;2024-03-02T14:33:12;27.70;1.00
1011;DHT22;494;48.744;10.106;2024-03-02T14:35:42;27.70;1.00
1011;DHT22;494;48.744;10.106;2024-03-02T14:38:11;27.70;1.00
1011;DHT22;494;48.744;10.106;2024-03-02T14:40:49;27.80;1.00
1011;DHT22;494;48.744;10.106;2024-03-02T14:43:20;27.80;1.00
1011;DHT22;494;48.744;10.106;2024-03-02T14:45:49;27.70;1.00
1011;DHT22;494;48.744;10.106;2024-03-02T14:48:20;27.30;1.00
1011;DHT22;494;48.744;10.106;2024-03-02T14:50:51;27.30;1.00
1011;DHT22;494;48.744;10.106;2024-03-02T14:53:29;27.50;1.00
1011;DHT22;494;48.744;10.106;2024-03-02T14:56:13;27.60;1.00
1011;DHT22;494;48.744;10.106;2024-03-02T14:58:44;27.70;1.00
1011;DHT22;494;48.744;10.106;2024-03-02T15:01:15;27.60;1.00
1011;DHT22;494;48.744;10.106;2024-03-02T15:03:49;27.30;1.00
1011;DHT22;494;48.744;10.106;2024-03-02T15:06:22;27.20;1.00
1011;DHT22;494;48.744;10.106;2024-03-02T15:08:57;27.00;1.00
1011;DHT22;494;48.744;10.106;2024-03-02T15:11:48;26.80;1.00
1011;DHT22;494;48.744;10.106;2024-03-02T15:14:22;26.70;1.00
1011;DHT22;494;48.744;10.106;2024-03-02T15:17:22;26.70;1.00
1011;DHT22;494;48.744;10.106;2024-03-02T15:19:53;26.50;1.00
1011;DHT22;494;48.744;10.106;2024-03-02T15:22:28;26.50;1.00
1011;DHT22;494;48.744;10.106;2024-03-02T15:25:06;26.10;1.00
1011;DHT22;494;48.744;10.106;2024-03-02T15:27:45;26.00;1.00
1011;DHT22;494;48.744;10.106;2024-03-02T15:30:17;25.40;1.00
1011;DHT22;494;48.744;10.106;2024-03-02T15:33:07;24.70;1.00
1011;DHT22;494;48.744;10.106;2024-03-02T15:35:41;24.00;1.00
1011;DHT22;494;48.744;10.106;2024-03-02T15:38:13;24.00;1.00
1011;DHT22;494;48.744;10.106;2024-03-02T15:40:58;24.00;1.00
1011;DHT22;494;48.744;10.106;2024-03-02T15:43:28;24.00;1.00
1011;DHT22;494;48.744;10.106;2024-03-02T15:45:58;24.10;1.00
1011;DHT22;494;48.744;10.106;2024-03-02T15:48:29;24.00;1.00
1011;DHT22;494;48.744;10.106;2024-03-02T15:51:03;23.50;1.00
1011;DHT22;494;48.744;10.106;2024-03-02T15:53:33;23.20;1.00
1011;DHT22;494;48.744;10.106;2024-03-02T15:56:04;22.50;1.00
1011;DHT22;494;48.744;10.106;2024-03-02T15:58:37;21.80;1.00
1011;DHT22;494;48.744;10.106;2024-03-02T16:01:07;21.20;1.00
1011;DHT22;494;48.744;10.106;2024-03-02T16:03:39;20.40;1.00
1011;DHT22;494;48.744;10.106;2024-03-02T16:06:08;19.80;1.00
1011;DHT22;494;48.744;10.106;2024-03-02T16:08:37;19.30;1.00
1011;DHT22;494;48.744;10.106;2024-03-02T16:11:09;18.80;1.00
1011;DHT22;494;48.744;10.106;2024-03-02T16:13:39;18.20;1.00
1011;DHT22;494;48.744;10.106;2024-03-02T16:16:08;17.40;1.00
1011;DHT22;494;48.744;10.106;2024-03-02T16:18:37;16.80;1.00
1011;DHT22;494;48.744;10.106;2024-03-02T16:21:06;16.50;1.00
1011;DHT22;494;48.744;10.106;2024-03-02T16:23:36;16.30;1.00
1011;DHT22;494;48.744;10.106;2024-03-02T16:26:05;16.00;1.00
1011;DHT22;494;48.744;10.106;2024-03-02T16:28:36;15.70;1.00
1011;DHT22;494;48.744;10.106;2024-03-02T16:31:06;15.50;1.00
1011;DHT22;494;48.744;10.106;2024-03-02T16:33:37;15.30;1.00
1011;DHT22;494;48.744;10.106;2024-03-02T16:36:08;15.10;1.00
1011;DHT22;494;48.744;10.106;2024-03-02T16:38:38;14.80;1.00
1011;DHT22;494;48.744;10.106;2024-03-02T16:41:08;14.60;1.00
1011;DHT22;494;48.744;10.106;2024-03-02T16:43:36;14.40;1.00
1011;DHT22;494;48.744;10.106;2024-03-02T16:46:16;14.30;1.00
1011;DHT22;494;48.744;10.106;2024-03-02T16:48:47;14.10;1.00
1011;DHT22;494;48.744;10.106;2024-03-02T16:51:16;14.00;1.00
1011;DHT22;494;48.744;10.106;2024-03-02T16:53:45;14.00;1.00
1011;DHT22;494;48.744;10.106;2024-03-02T16:56:14;13.80;1.00
1011;DHT22;494;48.744;10.106;2024-03-02T16:58:43;13.70;1.00
1011;DHT22;494;48.744;10.106;2024-03-02T17:01:11;13.60;1.00
1011;DHT22;494;48.744;10.106;2024-03-02T17:03:42;13.50;1.00
1011;DHT22;494;48.744;10.106;2024-03-02T17:06:11;13.60;1.00
1011;DHT22;494;48.744;10.106;2024-03-02T17:08:40;13.60;1.00
1011;DHT22;494;48.744;10.106;2024-03-02T17:11:32;13.70;1.00
1011;DHT22;494;48.744;10.106;2024-03-02T17:14:03;13.60;1.00
1011;DHT22;494;48.744;10.106;2024-03-02T17:16:46;13.60;1.00